createdAt,value
2019-03-22T00:00:50.190Z,91.70
2019-03-22T00:03:19.334Z,91.50
2019-03-22T00:06:07.604Z,91.40
2019-03-22T00:08:36.801Z,91.60
2019-03-22T00:11:05.968Z,91.50
2019-03-22T00:13:35.191Z,91.40
2019-03-22T00:16:04.429Z,91.40
2019-03-22T00:18:33.643Z,91.30
2019-03-22T00:21:02.769Z,91.40
2019-03-22T00:23:31.900Z,91.50
2019-03-22T00:26:01.053Z,91.40
2019-03-22T00:28:30.313Z,91.50
2019-03-22T00:30:59.468Z,91.60
2019-03-22T00:33:28.609Z,91.60
2019-03-22T00:35:57.810Z,91.80
2019-03-22T00:38:26.944Z,91.80
2019-03-22T00:40:56.345Z,91.80
2019-03-22T00:43:25.457Z,91.60
2019-03-22T00:45:54.837Z,91.60
2019-03-22T00:48:24.930Z,91.50
2019-03-22T00:50:54.194Z,91.40
2019-03-22T00:53:23.336Z,91.60
2019-03-22T00:55:52.482Z,91.70
2019-03-22T00:58:21.600Z,91.80
2019-03-22T01:00:52.364Z,91.70
2019-03-22T01:03:21.732Z,91.70
2019-03-22T01:05:50.869Z,91.70
2019-03-22T01:08:20.025Z,91.80
2019-03-22T01:10:49.161Z,91.80
2019-03-22T01:13:18.626Z,91.80
2019-03-22T01:15:47.760Z,92.10
2019-03-22T01:18:16.960Z,92.30
2019-03-22T01:20:46.080Z,92.40
2019-03-22T01:23:16.667Z,92.40
2019-03-22T01:25:45.811Z,92.30
2019-03-22T01:28:15.055Z,92.30
2019-03-22T01:30:44.184Z,92.40
2019-03-22T01:33:13.320Z,92.30
2019-03-22T01:35:42.473Z,92.30
2019-03-22T01:38:11.656Z,92.50
2019-03-22T01:40:40.792Z,92.50
2019-03-22T01:43:09.921Z,92.50
2019-03-22T01:45:39.116Z,92.50
2019-03-22T01:48:08.504Z,92.50
2019-03-22T01:50:37.653Z,92.60
2019-03-22T01:53:06.792Z,92.60
2019-03-22T01:55:36.021Z,92.80
2019-03-22T01:58:05.295Z,92.80
2019-03-22T02:00:34.498Z,92.60
2019-03-22T02:03:03.758Z,92.50
2019-03-22T02:05:32.878Z,92.80
2019-03-22T02:08:02.120Z,92.50
2019-03-22T02:10:31.257Z,92.50
2019-03-22T02:13:00.413Z,92.60
2019-03-22T02:15:29.534Z,92.60
2019-03-22T02:17:58.675Z,92.60
2019-03-22T02:20:27.877Z,92.50
2019-03-22T02:22:57.017Z,92.40
2019-03-22T02:25:45.267Z,92.40
2019-03-22T02:28:14.607Z,92.50
2019-03-22T02:30:43.945Z,92.50
2019-03-22T02:33:33.945Z,92.40
2019-03-22T02:36:03.153Z,92.40
2019-03-22T02:38:32.457Z,92.50
2019-03-22T02:41:02.955Z,92.40
2019-03-22T02:43:32.119Z,92.50
2019-03-22T02:46:01.315Z,92.50
2019-03-22T02:48:49.510Z,92.30
2019-03-22T02:51:22.274Z,92.20
2019-03-22T02:53:51.449Z,92.20
2019-03-22T02:56:20.649Z,92.20
2019-03-22T02:58:49.797Z,92.40
2019-03-22T03:01:18.939Z,92.30
2019-03-22T03:03:48.073Z,92.50
2019-03-22T03:06:18.304Z,92.50
2019-03-22T03:08:47.466Z,92.50
2019-03-22T03:11:19.739Z,92.60
2019-03-22T03:13:48.881Z,92.80
2019-03-22T03:16:18.102Z,92.80
2019-03-22T03:18:47.216Z,92.90
2019-03-22T03:21:17.448Z,93.00
2019-03-22T03:23:46.578Z,93.20
2019-03-22T03:26:15.827Z,93.30
2019-03-22T03:28:46.611Z,93.40
2019-03-22T03:31:15.934Z,93.40
2019-03-22T03:33:45.073Z,93.20
2019-03-22T03:36:14.565Z,93.20
2019-03-22T03:38:46.022Z,93.40
2019-03-22T03:41:15.345Z,93.30
2019-03-22T03:43:44.483Z,93.40
2019-03-22T03:46:13.636Z,93.30
2019-03-22T03:48:42.821Z,93.40
2019-03-22T03:51:11.953Z,93.40
2019-03-22T03:53:41.098Z,93.70
2019-03-22T03:56:10.333Z,93.70
2019-03-22T03:58:58.537Z,93.70
2019-03-22T04:01:27.679Z,93.70
2019-03-22T04:03:56.835Z,93.70
2019-03-22T04:06:25.982Z,93.70
2019-03-22T04:08:55.100Z,93.80
2019-03-22T04:11:24.247Z,93.70
2019-03-22T04:13:53.404Z,93.80
2019-03-22T04:16:22.609Z,93.60
2019-03-22T04:18:51.781Z,93.60
2019-03-22T04:21:20.934Z,93.50
2019-03-22T04:23:50.076Z,93.40
2019-03-22T04:26:19.233Z,93.50
2019-03-22T04:28:48.497Z,93.60
2019-03-22T04:31:17.843Z,93.60
2019-03-22T04:33:46.981Z,93.60
2019-03-22T04:36:16.257Z,93.70
2019-03-22T04:38:48.090Z,93.60
2019-03-22T04:41:18.220Z,93.60
2019-03-22T04:43:48.960Z,93.50
2019-03-22T04:46:18.068Z,93.50
2019-03-22T04:48:49.477Z,93.50
2019-03-22T04:51:18.614Z,93.60
2019-03-22T04:53:52.096Z,93.60
2019-03-22T04:56:21.238Z,93.70
2019-03-22T04:58:50.424Z,93.80
2019-03-22T05:01:20.620Z,93.90
2019-03-22T05:04:08.845Z,93.70
2019-03-22T05:06:38.205Z,93.80
2019-03-22T05:09:09.408Z,93.80
2019-03-22T05:11:38.649Z,93.80
2019-03-22T05:14:07.796Z,94.00
2019-03-22T05:16:37.013Z,93.90
2019-03-22T05:19:06.205Z,93.90
2019-03-22T05:21:35.347Z,93.90
2019-03-22T05:24:23.552Z,94.00
2019-03-22T05:26:52.852Z,94.20
2019-03-22T05:29:30.612Z,94.20
2019-03-22T05:32:05.689Z,94.30
2019-03-22T05:34:34.952Z,94.50
2019-03-22T05:37:04.385Z,94.60
2019-03-22T05:39:33.569Z,94.60
2019-03-22T05:42:03.049Z,94.70
2019-03-22T05:44:32.223Z,94.90
2019-03-22T05:47:20.457Z,95.00
2019-03-22T05:49:49.623Z,95.10
2019-03-22T05:52:37.925Z,95.20
2019-03-22T05:55:07.483Z,95.40
2019-03-22T05:57:36.912Z,95.40
2019-03-22T06:00:25.150Z,95.40
2019-03-22T06:02:54.300Z,95.50
2019-03-22T06:05:23.440Z,95.50
2019-03-22T06:07:52.563Z,95.50
2019-03-22T06:10:21.776Z,95.50
2019-03-22T06:12:50.899Z,95.50
2019-03-22T06:15:20.165Z,95.50
2019-03-22T06:17:51.813Z,95.50
2019-03-22T06:20:20.227Z,95.50
2019-03-22T06:22:58.792Z,95.50
2019-03-22T06:25:27.985Z,95.50
2019-03-22T06:27:57.241Z,95.40
2019-03-22T06:30:26.417Z,95.50
2019-03-22T06:32:55.527Z,95.50
2019-03-22T06:35:24.700Z,95.40
2019-03-22T06:37:53.870Z,95.40
2019-03-22T06:40:23.071Z,95.50
2019-03-22T06:43:11.263Z,95.40
2019-03-22T06:45:40.441Z,95.50
2019-03-22T06:48:09.591Z,95.60
2019-03-22T06:51:00.176Z,95.60
2019-03-22T06:53:40.609Z,95.80
2019-03-22T06:56:09.783Z,95.80
2019-03-22T06:58:38.928Z,96.00
2019-03-22T07:01:08.130Z,95.90
2019-03-22T07:03:37.353Z,95.80
2019-03-22T07:06:06.548Z,95.80
2019-03-22T07:08:35.692Z,95.90
2019-03-22T07:11:04.884Z,95.90
2019-03-22T07:13:34.103Z,95.80
2019-03-22T07:16:03.652Z,95.80
2019-03-22T07:18:32.969Z,95.70
2019-03-22T07:21:02.195Z,95.80
2019-03-22T07:23:32.769Z,95.70
2019-03-22T07:26:01.955Z,95.70
2019-03-22T07:28:31.356Z,95.90
2019-03-22T07:31:00.633Z,95.90
2019-03-22T07:33:29.901Z,96.00
2019-03-22T07:36:08.199Z,96.10
2019-03-22T07:38:37.380Z,96.00
2019-03-22T07:41:06.686Z,95.90
2019-03-22T07:43:35.881Z,96.00
2019-03-22T07:46:05.046Z,96.10
2019-03-22T07:48:34.289Z,96.00
2019-03-22T07:51:05.843Z,95.90
2019-03-22T07:53:35.328Z,95.80
2019-03-22T07:56:06.080Z,95.80
2019-03-22T07:58:35.277Z,95.60
2019-03-22T08:01:05.526Z,95.50
2019-03-22T08:03:55.628Z,95.70
2019-03-22T08:06:29.321Z,95.60
2019-03-22T08:09:00.827Z,95.70
2019-03-22T08:12:04.331Z,95.70
2019-03-22T08:14:39.095Z,95.70
2019-03-22T08:17:16.024Z,95.70
2019-03-22T08:19:45.250Z,95.50
2019-03-22T08:22:14.564Z,95.60
2019-03-22T08:24:43.745Z,95.50
2019-03-22T08:27:12.945Z,95.50
2019-03-22T08:29:42.130Z,95.60
2019-03-22T08:32:11.324Z,95.40
2019-03-22T08:34:40.727Z,95.30
2019-03-22T08:37:10.086Z,94.70
2019-03-22T08:39:39.233Z,94.60
2019-03-22T08:42:08.411Z,94.20
2019-03-22T08:44:37.683Z,94.00
2019-03-22T08:47:06.867Z,93.90
2019-03-22T08:49:36.095Z,93.70
2019-03-22T08:52:05.473Z,93.60
2019-03-22T08:54:34.777Z,93.80
2019-03-22T08:57:03.960Z,93.80
2019-03-22T08:59:35.327Z,93.70
2019-03-22T09:02:04.516Z,93.80
2019-03-22T09:04:33.919Z,93.70
2019-03-22T09:07:06.288Z,93.90
2019-03-22T09:09:41.597Z,94.00
2019-03-22T09:12:07.630Z,93.70
2019-03-22T09:14:37.008Z,93.60
2019-03-22T09:17:06.150Z,93.50
2019-03-22T09:19:35.652Z,93.30
2019-03-22T09:22:07.018Z,93.30
2019-03-22T09:24:39.248Z,93.50
2019-03-22T09:27:07.063Z,93.40
2019-03-22T09:29:36.240Z,93.30
2019-03-22T09:32:06.711Z,93.00
2019-03-22T09:34:35.933Z,92.60
2019-03-22T09:37:05.428Z,92.80
2019-03-22T09:39:37.616Z,92.70
2019-03-22T09:42:25.958Z,92.30
2019-03-22T09:44:55.396Z,91.80
2019-03-22T09:47:24.628Z,91.70
2019-03-22T09:49:53.803Z,91.80
2019-03-22T09:52:23.012Z,91.10
2019-03-22T09:54:52.571Z,91.50
2019-03-22T09:57:21.725Z,91.20
2019-03-22T09:59:50.852Z,91.70
2019-03-22T10:02:20.134Z,91.70
2019-03-22T10:04:52.306Z,91.60
2019-03-22T10:07:40.813Z,91.00
2019-03-22T10:10:10.351Z,90.60
2019-03-22T10:12:39.694Z,90.60
2019-03-22T10:15:08.895Z,90.60
2019-03-22T10:17:38.155Z,90.60
2019-03-22T10:20:07.330Z,90.30
2019-03-22T10:22:39.550Z,90.40
2019-03-22T10:25:08.684Z,90.00
2019-03-22T10:27:38.119Z,90.00
2019-03-22T10:30:26.434Z,89.30
2019-03-22T10:32:55.713Z,90.00
2019-03-22T10:35:26.236Z,89.70
2019-03-22T10:38:00.379Z,88.50
2019-03-22T10:40:26.695Z,87.90
2019-03-22T10:42:57.855Z,87.70
2019-03-22T10:45:27.046Z,88.30
2019-03-22T10:47:56.201Z,89.20
2019-03-22T10:50:25.700Z,89.20
2019-03-22T10:52:56.339Z,88.70
2019-03-22T10:55:30.441Z,88.50
2019-03-22T10:58:19.906Z,88.40
2019-03-22T11:00:36.482Z,88.20
2019-03-22T11:03:08.672Z,87.70
2019-03-22T11:05:37.860Z,88.40
2019-03-22T11:08:07.122Z,88.50
2019-03-22T11:10:36.842Z,88.10
2019-03-22T11:13:06.016Z,87.70
2019-03-22T11:15:35.378Z,87.80
2019-03-22T11:18:05.841Z,87.90
2019-03-22T11:20:35.085Z,86.80
2019-03-22T11:23:10.237Z,85.60
2019-03-22T11:25:39.450Z,85.70
2019-03-22T11:28:27.768Z,85.30
2019-03-22T11:31:04.543Z,86.20
2019-03-22T11:33:28.027Z,85.50
2019-03-22T11:35:57.274Z,83.70
2019-03-22T11:38:26.448Z,84.70
2019-03-22T11:40:55.796Z,84.30
2019-03-22T11:43:25.663Z,84.30
2019-03-22T11:45:54.950Z,84.80
2019-03-22T11:48:24.180Z,82.20
2019-03-22T11:50:53.375Z,82.00
2019-03-22T11:53:22.573Z,81.90
2019-03-22T11:55:51.788Z,82.20
2019-03-22T11:58:20.936Z,82.70
2019-03-22T12:00:50.114Z,82.70
2019-03-22T12:03:19.276Z,81.00
2019-03-22T12:05:48.423Z,81.00
2019-03-22T12:08:20.389Z,80.50
2019-03-22T12:10:49.590Z,81.00
2019-03-22T12:13:18.731Z,80.90
2019-03-22T12:15:48.278Z,79.80
2019-03-22T12:18:17.485Z,79.20
2019-03-22T12:20:46.656Z,80.10
2019-03-22T12:23:18.677Z,78.50
2019-03-22T12:25:47.829Z,76.50
2019-03-22T12:28:18.295Z,76.20
2019-03-22T12:30:47.493Z,78.70
2019-03-22T12:33:19.984Z,74.40
2019-03-22T12:35:49.175Z,74.10
2019-03-22T12:38:18.318Z,74.50
2019-03-22T12:40:47.555Z,72.50
2019-03-22T12:43:16.854Z,69.60
2019-03-22T12:45:46.014Z,70.10
2019-03-22T12:48:15.408Z,67.30
2019-03-22T12:50:44.605Z,70.60
2019-03-22T12:53:13.814Z,69.00
2019-03-22T12:55:42.977Z,70.60
2019-03-22T12:58:12.414Z,73.30
2019-03-22T13:00:41.600Z,73.20
2019-03-22T13:03:13.487Z,71.90
2019-03-22T13:05:42.659Z,71.80
2019-03-22T13:08:11.862Z,70.90
2019-03-22T13:10:41.046Z,71.90
2019-03-22T13:13:10.182Z,71.90
2019-03-22T13:15:40.214Z,71.40
2019-03-22T13:18:12.034Z,71.80
2019-03-22T13:20:41.202Z,69.60
2019-03-22T13:23:10.393Z,67.40
2019-03-22T13:25:39.613Z,65.30
2019-03-22T13:28:11.588Z,67.90
2019-03-22T13:30:41.032Z,66.30
2019-03-22T13:33:10.294Z,67.50
2019-03-22T13:35:39.706Z,66.60
2019-03-22T13:38:08.884Z,66.20
2019-03-22T13:40:38.068Z,67.20
2019-03-22T13:43:07.580Z,64.40
2019-03-22T13:45:36.715Z,62.70
2019-03-22T13:48:05.865Z,61.00
2019-03-22T13:50:35.006Z,62.90
2019-03-22T13:53:04.332Z,61.40
2019-03-22T13:55:33.490Z,61.40
2019-03-22T13:58:04.045Z,60.10
2019-03-22T14:00:33.239Z,60.30
2019-03-22T14:03:02.865Z,60.50
2019-03-22T14:05:32.743Z,61.30
2019-03-22T14:08:01.985Z,58.50
2019-03-22T14:10:32.742Z,60.20
2019-03-22T14:13:05.315Z,60.50
2019-03-22T14:15:34.780Z,59.60
2019-03-22T14:18:03.931Z,59.80
2019-03-22T14:20:34.930Z,60.30
2019-03-22T14:23:07.208Z,59.00
2019-03-22T14:25:36.681Z,58.70
2019-03-22T14:28:06.436Z,59.90
2019-03-22T14:30:35.724Z,60.50
2019-03-22T14:33:12.877Z,58.20
2019-03-22T14:35:35.864Z,63.50
2019-03-22T14:38:08.072Z,67.90
2019-03-22T14:40:37.215Z,70.00
2019-03-22T14:43:06.445Z,72.30
2019-03-22T14:45:35.724Z,73.00
2019-03-22T14:48:04.913Z,72.90
2019-03-22T14:50:34.359Z,74.00
2019-03-22T14:53:06.813Z,74.20
2019-03-22T14:55:36.037Z,74.40
2019-03-22T14:58:05.546Z,75.00
2019-03-22T15:00:34.772Z,75.70
2019-03-22T15:03:08.567Z,75.60
2019-03-22T15:05:37.796Z,77.10
2019-03-22T15:08:07.070Z,77.20
2019-03-22T15:10:36.381Z,78.00
2019-03-22T15:13:06.101Z,79.60
2019-03-22T15:15:49.495Z,80.30
2019-03-22T15:18:52.502Z,81.20
2019-03-22T15:21:29.589Z,83.20
2019-03-22T15:24:16.772Z,85.90
2019-03-22T15:27:13.421Z,86.30
2019-03-22T15:30:07.865Z,87.10
2019-03-22T15:33:16.960Z,88.70
2019-03-22T15:39:02.450Z,89.60
2019-03-22T15:41:31.772Z,89.90
2019-03-22T15:44:00.965Z,90.60
2019-03-22T15:46:49.238Z,90.40
2019-03-22T15:49:18.450Z,90.20
2019-03-22T15:51:48.836Z,90.50
2019-03-22T15:54:18.353Z,90.70
2019-03-22T15:56:47.485Z,90.30
2019-03-22T15:59:19.927Z,89.80
2019-03-22T16:01:49.099Z,90.10
2019-03-22T16:04:18.834Z,89.90
2019-03-22T16:06:48.097Z,90.00
2019-03-22T16:09:17.338Z,90.20
2019-03-22T16:11:46.572Z,90.00
2019-03-22T16:14:18.760Z,90.10
2019-03-22T16:16:47.929Z,90.50
2019-03-22T16:19:18.530Z,91.00
2019-03-22T16:21:47.696Z,90.80
2019-03-22T16:24:20.432Z,91.10
2019-03-22T16:26:49.620Z,90.90
2019-03-22T16:29:18.809Z,90.90
2019-03-22T16:31:48.184Z,91.00
2019-03-22T16:34:19.491Z,90.70
2019-03-22T16:36:48.639Z,90.60
2019-03-22T16:39:20.608Z,91.00
2019-03-22T16:41:49.763Z,91.00
2019-03-22T16:44:18.901Z,91.00
2019-03-22T16:46:48.071Z,91.30
2019-03-22T16:49:19.693Z,91.30
2019-03-22T16:52:07.971Z,91.70
2019-03-22T16:54:37.223Z,92.30
2019-03-22T16:57:06.398Z,92.20
2019-03-22T16:59:35.552Z,92.50
2019-03-22T17:02:05.038Z,93.00
2019-03-22T17:04:34.522Z,93.20
2019-03-22T17:07:06.313Z,93.50
2019-03-22T17:09:54.601Z,93.90
2019-03-22T17:12:23.787Z,93.80
2019-03-22T17:14:52.953Z,93.70
2019-03-22T17:17:22.122Z,93.80
2019-03-22T17:19:51.542Z,94.00
2019-03-22T17:22:20.781Z,93.90
2019-03-22T17:24:49.939Z,93.70
2019-03-22T17:27:19.120Z,93.80
2019-03-22T17:29:49.806Z,93.80
2019-03-22T17:32:18.954Z,93.90
2019-03-22T17:34:48.138Z,94.10
2019-03-22T17:37:19.277Z,94.20
2019-03-22T17:39:48.405Z,94.10
2019-03-22T17:42:20.558Z,94.10
2019-03-22T17:44:49.693Z,94.00
2019-03-22T17:47:18.861Z,93.80
2019-03-22T17:49:48.682Z,93.90
2019-03-22T17:52:17.920Z,94.20
2019-03-22T17:54:47.133Z,94.50
2019-03-22T17:57:19.101Z,94.70
2019-03-22T17:59:48.420Z,94.70
2019-03-22T18:02:20.586Z,94.90
2019-03-22T18:04:49.769Z,94.80
2019-03-22T18:07:18.973Z,94.90
2019-03-22T18:09:48.413Z,95.30
2019-03-22T18:12:17.745Z,95.30
2019-03-22T18:14:46.881Z,95.30
2019-03-22T18:17:17.104Z,95.40
2019-03-22T18:19:46.241Z,95.60
2019-03-22T18:22:15.437Z,95.50
2019-03-22T18:24:44.611Z,95.60
2019-03-22T18:27:15.460Z,95.60
2019-03-22T18:29:44.563Z,95.70
2019-03-22T18:32:13.678Z,95.70
2019-03-22T18:34:42.833Z,95.70
2019-03-22T18:37:11.970Z,95.70
2019-03-22T18:39:41.140Z,95.70
2019-03-22T18:42:10.372Z,95.70
2019-03-22T18:44:39.523Z,95.80
2019-03-22T18:47:11.395Z,95.90
2019-03-22T18:49:40.541Z,95.90
2019-03-22T18:52:09.765Z,95.90
2019-03-22T18:54:38.879Z,95.90
2019-03-22T18:57:08.047Z,95.90
2019-03-22T18:59:37.217Z,95.90
2019-03-22T19:02:06.616Z,95.90
2019-03-22T19:04:43.861Z,95.90
2019-03-22T19:07:06.698Z,95.80
2019-03-22T19:09:35.900Z,95.60
2019-03-22T19:12:05.125Z,95.70
2019-03-22T19:14:34.337Z,95.70
2019-03-22T19:17:04.524Z,95.80
2019-03-22T19:19:33.702Z,95.80
2019-03-22T19:22:02.989Z,95.80
2019-03-22T19:24:32.138Z,95.90
2019-03-22T19:27:01.275Z,96.00
2019-03-22T19:29:30.427Z,96.00
2019-03-22T19:32:00.400Z,96.10
2019-03-22T19:34:29.579Z,96.10
2019-03-22T19:36:58.733Z,96.00
2019-03-22T19:39:29.301Z,96.00
2019-03-22T19:41:58.524Z,96.00
2019-03-22T19:44:27.813Z,95.80
2019-03-22T19:46:56.959Z,95.90
2019-03-22T19:49:26.120Z,95.90
2019-03-22T19:51:59.457Z,95.90
2019-03-22T19:54:28.715Z,95.90
2019-03-22T19:56:57.872Z,95.80
2019-03-22T19:59:27.062Z,95.80
2019-03-22T20:01:57.502Z,95.90
2019-03-22T20:04:26.659Z,95.80
2019-03-22T20:06:55.907Z,95.70
2019-03-22T20:09:25.079Z,95.60
2019-03-22T20:11:54.360Z,95.70
2019-03-22T20:14:23.533Z,95.70
2019-03-22T20:16:52.677Z,95.60
2019-03-22T20:19:21.845Z,95.60
2019-03-22T20:21:50.995Z,95.60
2019-03-22T20:24:20.193Z,95.50
2019-03-22T20:26:49.368Z,95.30
2019-03-22T20:29:18.570Z,95.40
2019-03-22T20:31:48.040Z,95.40
2019-03-22T20:34:19.341Z,95.40
2019-03-22T20:36:48.480Z,95.50
2019-03-22T20:39:17.975Z,95.40
2019-03-22T20:41:47.126Z,95.40
2019-03-22T20:44:18.253Z,95.40
2019-03-22T20:46:47.414Z,95.30
2019-03-22T20:49:16.619Z,95.30
2019-03-22T20:51:46.088Z,95.30
2019-03-22T20:54:16.568Z,95.20
2019-03-22T20:56:45.931Z,95.20
2019-03-22T20:59:16.620Z,95.20
2019-03-22T21:01:45.774Z,95.10
2019-03-22T21:04:15.854Z,95.00
2019-03-22T21:06:45.030Z,95.00
2019-03-22T21:09:16.474Z,94.90
2019-03-22T21:11:45.096Z,94.90
2019-03-22T21:14:14.285Z,94.90
2019-03-22T21:16:43.864Z,94.80
2019-03-22T21:19:13.079Z,94.70
2019-03-22T21:21:42.322Z,94.80
2019-03-22T21:24:11.547Z,94.70
2019-03-22T21:26:40.894Z,94.70
2019-03-22T21:29:10.208Z,94.50
2019-03-22T21:31:39.400Z,94.40
2019-03-22T21:34:08.586Z,94.60
2019-03-22T21:36:37.914Z,94.70
2019-03-22T21:39:07.822Z,94.80
2019-03-22T21:41:37.296Z,94.90
2019-03-22T21:44:06.441Z,94.90
2019-03-22T21:46:35.657Z,95.00
2019-03-22T21:49:04.899Z,95.00
2019-03-22T21:51:34.167Z,95.00
2019-03-22T21:54:03.394Z,95.10
2019-03-22T21:56:32.636Z,95.10
2019-03-22T21:59:05.500Z,95.00
2019-03-22T22:01:35.003Z,95.00
2019-03-22T22:04:04.392Z,94.90
2019-03-22T22:06:33.575Z,94.90
2019-03-22T22:09:07.184Z,94.80
2019-03-22T22:11:36.727Z,94.70
2019-03-22T22:14:05.876Z,94.70
2019-03-22T22:16:35.129Z,94.60
2019-03-22T22:19:04.397Z,94.50
2019-03-22T22:21:33.538Z,94.50
2019-03-22T22:24:02.793Z,94.40
2019-03-22T22:26:31.944Z,94.30
2019-03-22T22:29:01.061Z,94.30
2019-03-22T22:31:30.196Z,94.30
2019-03-22T22:33:59.605Z,94.20
2019-03-22T22:36:28.761Z,94.10
2019-03-22T22:38:57.925Z,93.90
2019-03-22T22:41:27.106Z,93.90
2019-03-22T22:43:58.864Z,93.80
2019-03-22T22:46:28.023Z,93.80
2019-03-22T22:48:57.155Z,93.80
2019-03-22T22:51:26.304Z,93.70
2019-03-22T22:53:55.488Z,93.70
2019-03-22T22:56:24.629Z,93.60
2019-03-22T22:58:54.090Z,93.60
2019-03-22T23:01:23.283Z,93.50
2019-03-22T23:03:52.392Z,93.50
2019-03-22T23:06:24.513Z,93.40
2019-03-22T23:08:53.648Z,93.30
2019-03-22T23:11:22.828Z,93.30
2019-03-22T23:13:51.999Z,93.20
2019-03-22T23:16:21.139Z,93.30
2019-03-22T23:18:50.333Z,93.30
2019-03-22T23:21:19.504Z,93.30
2019-03-22T23:23:59.996Z,93.20
2019-03-22T23:26:35.539Z,93.20
2019-03-22T23:29:15.405Z,93.20
2019-03-22T23:32:12.030Z,93.10
2019-03-22T23:35:01.252Z,93.00
2019-03-22T23:37:17.996Z,93.00
2019-03-22T23:39:47.152Z,93.00
2019-03-22T23:42:19.933Z,93.00
2019-03-22T23:44:49.108Z,93.00
2019-03-22T23:47:18.260Z,93.00
2019-03-22T23:49:47.406Z,93.00
2019-03-22T23:52:16.686Z,93.00
2019-03-22T23:54:45.862Z,93.00
2019-03-22T23:57:15.049Z,93.00
2019-03-22T23:59:44.185Z,93.00
